sensor_id;sensor_type;location;lat;lon;timestamp;P1;durP1;ratioP1;P2;durP2;ratioP2
14876;SDS011;22152;48.158;17.118;2023-04-25T00:01:40;4.00;;;2.17;;
14876;SDS011;22152;48.158;17.118;2023-04-25T00:04:06;3.60;;;2.40;;
14876;SDS011;22152;48.158;17.118;2023-04-25T00:06:33;2.67;;;2.20;;
14876;SDS011;22152;48.158;17.118;2023-04-25T00:09:02;3.05;;;2.58;;
14876;SDS011;22152;48.158;17.118;2023-04-25T00:11:35;4.85;;;2.30;;
14876;SDS011;22152;48.158;17.118;2023-04-25T00:14:02;4.72;;;3.03;;
14876;SDS011;22152;48.158;17.118;2023-04-25T00:16:29;3.92;;;2.65;;
14876;SDS011;22152;48.158;17.118;2023-04-25T00:18:58;4.00;;;2.47;;
14876;SDS011;22152;48.158;17.118;2023-04-25T00:21:24;4.20;;;2.38;;
14876;SDS011;22152;48.158;17.118;2023-04-25T00:23:52;3.67;;;2.35;;
14876;SDS011;22152;48.158;17.118;2023-04-25T00:26:18;4.18;;;2.72;;
14876;SDS011;22152;48.158;17.118;2023-04-25T00:28:46;5.75;;;2.30;;
14876;SDS011;22152;48.158;17.118;2023-04-25T00:31:13;3.15;;;2.00;;
14876;SDS011;22152;48.158;17.118;2023-04-25T00:33:39;5.07;;;2.38;;
14876;SDS011;22152;48.158;17.118;2023-04-25T00:36:05;6.95;;;2.17;;
14876;SDS011;22152;48.158;17.118;2023-04-25T00:38:32;6.95;;;2.50;;
14876;SDS011;22152;48.158;17.118;2023-04-25T00:40:58;4.55;;;2.05;;
14876;SDS011;22152;48.158;17.118;2023-04-25T00:43:27;2.40;;;2.13;;
14876;SDS011;22152;48.158;17.118;2023-04-25T00:45:55;3.83;;;2.58;;
14876;SDS011;22152;48.158;17.118;2023-04-25T00:48:23;6.70;;;2.75;;
14876;SDS011;22152;48.158;17.118;2023-04-25T00:50:51;3.72;;;2.63;;
14876;SDS011;22152;48.158;17.118;2023-04-25T00:53:22;3.13;;;2.35;;
14876;SDS011;22152;48.158;17.118;2023-04-25T00:55:53;2.83;;;2.45;;
14876;SDS011;22152;48.158;17.118;2023-04-25T00:58:23;5.80;;;2.33;;
14876;SDS011;22152;48.158;17.118;2023-04-25T01:00:50;5.13;;;2.47;;
14876;SDS011;22152;48.158;17.118;2023-04-25T01:03:17;4.03;;;2.28;;
14876;SDS011;22152;48.158;17.118;2023-04-25T01:05:46;4.13;;;2.25;;
14876;SDS011;22152;48.158;17.118;2023-04-25T01:08:13;3.67;;;2.25;;
14876;SDS011;22152;48.158;17.118;2023-04-25T01:10:40;3.05;;;2.28;;
14876;SDS011;22152;48.158;17.118;2023-04-25T01:13:05;5.15;;;2.55;;
14876;SDS011;22152;48.158;17.118;2023-04-25T01:15:32;3.45;;;2.47;;
14876;SDS011;22152;48.158;17.118;2023-04-25T01:17:58;5.45;;;2.53;;
14876;SDS011;22152;48.158;17.118;2023-04-25T01:20:26;6.63;;;3.08;;
14876;SDS011;22152;48.158;17.118;2023-04-25T01:22:53;4.95;;;2.25;;
14876;SDS011;22152;48.158;17.118;2023-04-25T01:25:20;8.05;;;2.58;;
14876;SDS011;22152;48.158;17.118;2023-04-25T01:27:48;6.07;;;2.95;;
14876;SDS011;22152;48.158;17.118;2023-04-25T01:30:14;4.55;;;2.50;;
14876;SDS011;22152;48.158;17.118;2023-04-25T01:32:41;3.85;;;2.40;;
14876;SDS011;22152;48.158;17.118;2023-04-25T01:35:09;4.10;;;2.92;;
14876;SDS011;22152;48.158;17.118;2023-04-25T01:37:37;7.50;;;3.05;;
14876;SDS011;22152;48.158;17.118;2023-04-25T01:40:08;6.07;;;2.83;;
14876;SDS011;22152;48.158;17.118;2023-04-25T01:42:37;3.00;;;2.15;;
14876;SDS011;22152;48.158;17.118;2023-04-25T01:45:05;6.20;;;2.35;;
14876;SDS011;22152;48.158;17.118;2023-04-25T01:47:33;6.13;;;2.45;;
14876;SDS011;22152;48.158;17.118;2023-04-25T01:50:01;3.55;;;2.92;;
14876;SDS011;22152;48.158;17.118;2023-04-25T01:52:29;4.13;;;2.53;;
14876;SDS011;22152;48.158;17.118;2023-04-25T01:54:56;5.78;;;2.25;;
14876;SDS011;22152;48.158;17.118;2023-04-25T01:57:26;3.83;;;2.75;;
14876;SDS011;22152;48.158;17.118;2023-04-25T02:00:00;3.47;;;2.60;;
14876;SDS011;22152;48.158;17.118;2023-04-25T02:02:38;4.43;;;2.13;;
14876;SDS011;22152;48.158;17.118;2023-04-25T02:05:10;3.10;;;2.58;;
14876;SDS011;22152;48.158;17.118;2023-04-25T02:07:38;2.42;;;2.20;;
14876;SDS011;22152;48.158;17.118;2023-04-25T02:10:04;6.68;;;2.30;;
14876;SDS011;22152;48.158;17.118;2023-04-25T02:12:35;4.13;;;2.50;;
14876;SDS011;22152;48.158;17.118;2023-04-25T02:15:16;3.05;;;2.10;;
14876;SDS011;22152;48.158;17.118;2023-04-25T02:17:56;4.97;;;2.70;;
14876;SDS011;22152;48.158;17.118;2023-04-25T02:20:23;4.43;;;2.55;;
14876;SDS011;22152;48.158;17.118;2023-04-25T02:22:50;3.20;;;2.42;;
14876;SDS011;22152;48.158;17.118;2023-04-25T02:25:16;4.35;;;3.25;;
14876;SDS011;22152;48.158;17.118;2023-04-25T02:27:45;6.97;;;2.63;;
14876;SDS011;22152;48.158;17.118;2023-04-25T02:30:12;6.65;;;2.45;;
14876;SDS011;22152;48.158;17.118;2023-04-25T02:32:39;2.63;;;2.17;;
14876;SDS011;22152;48.158;17.118;2023-04-25T02:35:06;6.18;;;2.33;;
14876;SDS011;22152;48.158;17.118;2023-04-25T02:37:33;3.20;;;2.50;;
14876;SDS011;22152;48.158;17.118;2023-04-25T02:40:00;3.75;;;2.80;;
14876;SDS011;22152;48.158;17.118;2023-04-25T02:42:28;6.72;;;3.33;;
14876;SDS011;22152;48.158;17.118;2023-04-25T02:44:56;3.47;;;1.92;;
14876;SDS011;22152;48.158;17.118;2023-04-25T02:47:22;3.45;;;2.33;;
14876;SDS011;22152;48.158;17.118;2023-04-25T02:49:48;3.72;;;2.30;;
14876;SDS011;22152;48.158;17.118;2023-04-25T02:52:15;6.13;;;2.78;;
14876;SDS011;22152;48.158;17.118;2023-04-25T02:54:42;5.20;;;2.45;;
14876;SDS011;22152;48.158;17.118;2023-04-25T02:57:08;4.63;;;2.40;;
14876;SDS011;22152;48.158;17.118;2023-04-25T02:59:36;6.05;;;2.75;;
14876;SDS011;22152;48.158;17.118;2023-04-25T03:02:02;4.80;;;2.78;;
14876;SDS011;22152;48.158;17.118;2023-04-25T03:04:28;4.45;;;2.30;;
14876;SDS011;22152;48.158;17.118;2023-04-25T03:06:54;4.15;;;2.58;;
14876;SDS011;22152;48.158;17.118;2023-04-25T03:09:20;9.23;;;2.50;;
14876;SDS011;22152;48.158;17.118;2023-04-25T03:11:47;4.47;;;2.25;;
14876;SDS011;22152;48.158;17.118;2023-04-25T03:14:13;5.85;;;2.75;;
14876;SDS011;22152;48.158;17.118;2023-04-25T03:16:39;2.85;;;2.10;;
14876;SDS011;22152;48.158;17.118;2023-04-25T03:19:05;4.72;;;2.20;;
14876;SDS011;22152;48.158;17.118;2023-04-25T03:21:32;4.03;;;2.35;;
14876;SDS011;22152;48.158;17.118;2023-04-25T03:24:00;6.03;;;2.95;;
14876;SDS011;22152;48.158;17.118;2023-04-25T03:26:29;3.92;;;2.85;;
14876;SDS011;22152;48.158;17.118;2023-04-25T03:28:54;3.42;;;2.40;;
14876;SDS011;22152;48.158;17.118;2023-04-25T03:31:21;9.85;;;2.35;;
14876;SDS011;22152;48.158;17.118;2023-04-25T03:33:47;4.28;;;2.35;;
14876;SDS011;22152;48.158;17.118;2023-04-25T03:36:13;10.50;;;3.00;;
14876;SDS011;22152;48.158;17.118;2023-04-25T03:38:39;4.03;;;2.80;;
14876;SDS011;22152;48.158;17.118;2023-04-25T03:41:07;5.20;;;2.97;;
14876;SDS011;22152;48.158;17.118;2023-04-25T03:43:59;6.82;;;3.20;;
14876;SDS011;22152;48.158;17.118;2023-04-25T03:46:26;4.85;;;3.05;;
14876;SDS011;22152;48.158;17.118;2023-04-25T03:48:52;4.40;;;2.80;;
14876;SDS011;22152;48.158;17.118;2023-04-25T03:51:27;3.20;;;2.90;;
14876;SDS011;22152;48.158;17.118;2023-04-25T03:53:53;6.00;;;3.13;;
14876;SDS011;22152;48.158;17.118;2023-04-25T03:56:19;7.40;;;3.22;;
14876;SDS011;22152;48.158;17.118;2023-04-25T03:58:49;4.05;;;2.40;;
14876;SDS011;22152;48.158;17.118;2023-04-25T04:01:17;5.40;;;2.70;;
14876;SDS011;22152;48.158;17.118;2023-04-25T04:03:43;5.55;;;2.65;;
14876;SDS011;22152;48.158;17.118;2023-04-25T04:06:09;3.70;;;2.85;;
14876;SDS011;22152;48.158;17.118;2023-04-25T04:08:39;3.53;;;2.63;;
14876;SDS011;22152;48.158;17.118;2023-04-25T04:11:05;7.70;;;3.38;;
14876;SDS011;22152;48.158;17.118;2023-04-25T04:13:32;3.70;;;2.92;;
14876;SDS011;22152;48.158;17.118;2023-04-25T04:15:59;6.40;;;2.67;;
14876;SDS011;22152;48.158;17.118;2023-04-25T04:18:25;4.07;;;3.10;;
14876;SDS011;22152;48.158;17.118;2023-04-25T04:20:54;3.75;;;3.00;;
14876;SDS011;22152;48.158;17.118;2023-04-25T04:23:21;3.97;;;2.97;;
14876;SDS011;22152;48.158;17.118;2023-04-25T04:25:48;3.90;;;2.67;;
14876;SDS011;22152;48.158;17.118;2023-04-25T04:28:32;4.40;;;3.03;;
14876;SDS011;22152;48.158;17.118;2023-04-25T04:31:03;4.60;;;3.25;;
14876;SDS011;22152;48.158;17.118;2023-04-25T04:33:29;5.30;;;3.22;;
14876;SDS011;22152;48.158;17.118;2023-04-25T04:35:59;8.52;;;3.50;;
14876;SDS011;22152;48.158;17.118;2023-04-25T04:38:26;6.97;;;3.28;;
14876;SDS011;22152;48.158;17.118;2023-04-25T04:40:56;8.52;;;3.33;;
14876;SDS011;22152;48.158;17.118;2023-04-25T04:43:44;5.82;;;2.67;;
14876;SDS011;22152;48.158;17.118;2023-04-25T04:46:23;4.95;;;2.97;;
14876;SDS011;22152;48.158;17.118;2023-04-25T04:49:11;6.63;;;3.60;;
14876;SDS011;22152;48.158;17.118;2023-04-25T04:51:57;6.45;;;3.08;;
14876;SDS011;22152;48.158;17.118;2023-04-25T04:54:43;6.70;;;3.22;;
14876;SDS011;22152;48.158;17.118;2023-04-25T04:57:16;8.88;;;3.15;;
14876;SDS011;22152;48.158;17.118;2023-04-25T05:00:01;4.47;;;3.15;;
14876;SDS011;22152;48.158;17.118;2023-04-25T05:02:48;4.25;;;2.85;;
14876;SDS011;22152;48.158;17.118;2023-04-25T05:05:33;4.50;;;3.08;;
14876;SDS011;22152;48.158;17.118;2023-04-25T05:08:19;4.88;;;3.58;;
14876;SDS011;22152;48.158;17.118;2023-04-25T05:11:07;4.15;;;2.72;;
14876;SDS011;22152;48.158;17.118;2023-04-25T05:13:53;7.38;;;3.00;;
14876;SDS011;22152;48.158;17.118;2023-04-25T05:16:40;5.65;;;3.20;;
14876;SDS011;22152;48.158;17.118;2023-04-25T05:19:35;7.80;;;3.63;;
14876;SDS011;22152;48.158;17.118;2023-04-25T05:22:15;7.20;;;2.75;;
14876;SDS011;22152;48.158;17.118;2023-04-25T05:27:45;5.75;;;2.63;;
14876;SDS011;22152;48.158;17.118;2023-04-25T05:30:34;4.72;;;2.65;;
14876;SDS011;22152;48.158;17.118;2023-04-25T05:33:29;4.82;;;3.05;;
14876;SDS011;22152;48.158;17.118;2023-04-25T05:35:55;5.35;;;2.53;;
14876;SDS011;22152;48.158;17.118;2023-04-25T05:38:22;3.42;;;2.80;;
14876;SDS011;22152;48.158;17.118;2023-04-25T05:41:11;4.97;;;3.13;;
14876;SDS011;22152;48.158;17.118;2023-04-25T05:43:41;5.60;;;2.97;;
14876;SDS011;22152;48.158;17.118;2023-04-25T05:46:29;5.38;;;2.90;;
14876;SDS011;22152;48.158;17.118;2023-04-25T05:49:27;9.05;;;3.20;;
14876;SDS011;22152;48.158;17.118;2023-04-25T05:52:22;4.45;;;2.88;;
14876;SDS011;22152;48.158;17.118;2023-04-25T05:55:17;5.68;;;3.08;;
14876;SDS011;22152;48.158;17.118;2023-04-25T05:57:43;6.05;;;3.60;;
14876;SDS011;22152;48.158;17.118;2023-04-25T06:00:12;5.95;;;2.67;;
14876;SDS011;22152;48.158;17.118;2023-04-25T06:02:42;3.50;;;2.90;;
14876;SDS011;22152;48.158;17.118;2023-04-25T06:05:10;3.60;;;2.92;;
14876;SDS011;22152;48.158;17.118;2023-04-25T06:07:35;7.07;;;3.10;;
14876;SDS011;22152;48.158;17.118;2023-04-25T06:10:02;6.55;;;3.17;;
14876;SDS011;22152;48.158;17.118;2023-04-25T06:12:31;5.72;;;3.55;;
14876;SDS011;22152;48.158;17.118;2023-04-25T06:14:59;7.95;;;2.97;;
14876;SDS011;22152;48.158;17.118;2023-04-25T06:17:25;8.20;;;3.25;;
14876;SDS011;22152;48.158;17.118;2023-04-25T06:19:51;14.18;;;3.85;;
14876;SDS011;22152;48.158;17.118;2023-04-25T06:22:17;8.25;;;3.70;;
14876;SDS011;22152;48.158;17.118;2023-04-25T06:24:43;6.55;;;3.72;;
14876;SDS011;22152;48.158;17.118;2023-04-25T06:27:10;8.25;;;3.50;;
14876;SDS011;22152;48.158;17.118;2023-04-25T06:29:38;4.35;;;3.00;;
14876;SDS011;22152;48.158;17.118;2023-04-25T06:32:04;7.50;;;3.67;;
14876;SDS011;22152;48.158;17.118;2023-04-25T06:34:30;4.57;;;3.13;;
14876;SDS011;22152;48.158;17.118;2023-04-25T06:36:57;4.82;;;2.78;;
14876;SDS011;22152;48.158;17.118;2023-04-25T06:39:22;6.47;;;3.33;;
14876;SDS011;22152;48.158;17.118;2023-04-25T06:41:49;5.60;;;3.58;;
14876;SDS011;22152;48.158;17.118;2023-04-25T06:44:34;5.65;;;3.40;;
14876;SDS011;22152;48.158;17.118;2023-04-25T06:47:01;4.30;;;2.85;;
14876;SDS011;22152;48.158;17.118;2023-04-25T06:49:27;4.97;;;3.42;;
14876;SDS011;22152;48.158;17.118;2023-04-25T06:51:53;5.28;;;2.97;;
14876;SDS011;22152;48.158;17.118;2023-04-25T06:54:19;7.88;;;3.72;;
14876;SDS011;22152;48.158;17.118;2023-04-25T06:56:59;7.57;;;3.38;;
14876;SDS011;22152;48.158;17.118;2023-04-25T06:59:26;5.85;;;3.50;;
14876;SDS011;22152;48.158;17.118;2023-04-25T07:01:53;6.45;;;3.58;;
14876;SDS011;22152;48.158;17.118;2023-04-25T07:04:24;8.07;;;3.70;;
14876;SDS011;22152;48.158;17.118;2023-04-25T07:06:54;5.15;;;3.38;;
14876;SDS011;22152;48.158;17.118;2023-04-25T07:09:27;6.55;;;3.63;;
14876;SDS011;22152;48.158;17.118;2023-04-25T07:11:54;4.57;;;3.00;;
14876;SDS011;22152;48.158;17.118;2023-04-25T07:14:20;7.30;;;3.50;;
14876;SDS011;22152;48.158;17.118;2023-04-25T07:16:46;6.72;;;3.50;;
14876;SDS011;22152;48.158;17.118;2023-04-25T07:19:12;5.78;;;3.30;;
14876;SDS011;22152;48.158;17.118;2023-04-25T07:21:38;6.07;;;3.78;;
14876;SDS011;22152;48.158;17.118;2023-04-25T07:24:05;5.15;;;3.40;;
14876;SDS011;22152;48.158;17.118;2023-04-25T07:26:35;8.38;;;3.65;;
14876;SDS011;22152;48.158;17.118;2023-04-25T07:29:19;7.18;;;4.15;;
14876;SDS011;22152;48.158;17.118;2023-04-25T07:31:45;8.63;;;4.28;;
14876;SDS011;22152;48.158;17.118;2023-04-25T07:34:12;9.90;;;4.13;;
14876;SDS011;22152;48.158;17.118;2023-04-25T07:36:38;6.50;;;4.18;;
14876;SDS011;22152;48.158;17.118;2023-04-25T07:39:04;7.75;;;4.18;;
14876;SDS011;22152;48.158;17.118;2023-04-25T07:41:30;12.50;;;4.10;;
14876;SDS011;22152;48.158;17.118;2023-04-25T07:43:56;11.25;;;4.35;;
14876;SDS011;22152;48.158;17.118;2023-04-25T07:46:22;7.82;;;4.50;;
14876;SDS011;22152;48.158;17.118;2023-04-25T07:48:48;4.30;;;3.42;;
14876;SDS011;22152;48.158;17.118;2023-04-25T07:51:14;7.75;;;4.20;;
14876;SDS011;22152;48.158;17.118;2023-04-25T07:53:40;9.10;;;3.88;;
14876;SDS011;22152;48.158;17.118;2023-04-25T07:56:10;6.70;;;3.63;;
14876;SDS011;22152;48.158;17.118;2023-04-25T07:58:39;8.25;;;4.10;;
14876;SDS011;22152;48.158;17.118;2023-04-25T08:01:08;7.53;;;4.07;;
14876;SDS011;22152;48.158;17.118;2023-04-25T08:03:34;5.43;;;3.95;;
14876;SDS011;22152;48.158;17.118;2023-04-25T08:06:02;9.38;;;4.13;;
14876;SDS011;22152;48.158;17.118;2023-04-25T08:08:31;7.78;;;3.97;;
14876;SDS011;22152;48.158;17.118;2023-04-25T08:10:57;7.80;;;3.92;;
14876;SDS011;22152;48.158;17.118;2023-04-25T08:13:23;9.02;;;4.25;;
14876;SDS011;22152;48.158;17.118;2023-04-25T08:15:49;6.43;;;3.88;;
14876;SDS011;22152;48.158;17.118;2023-04-25T08:18:15;5.25;;;4.07;;
14876;SDS011;22152;48.158;17.118;2023-04-25T08:20:41;6.43;;;3.75;;
14876;SDS011;22152;48.158;17.118;2023-04-25T08:23:09;5.43;;;3.30;;
14876;SDS011;22152;48.158;17.118;2023-04-25T08:25:56;6.38;;;4.30;;
14876;SDS011;22152;48.158;17.118;2023-04-25T08:28:25;4.57;;;3.47;;
14876;SDS011;22152;48.158;17.118;2023-04-25T08:30:51;11.88;;;4.95;;
14876;SDS011;22152;48.158;17.118;2023-04-25T08:33:18;7.82;;;4.70;;
14876;SDS011;22152;48.158;17.118;2023-04-25T08:36:12;6.13;;;4.40;;
14876;SDS011;22152;48.158;17.118;2023-04-25T08:38:38;5.85;;;3.95;;
14876;SDS011;22152;48.158;17.118;2023-04-25T08:41:07;7.97;;;4.63;;
14876;SDS011;22152;48.158;17.118;2023-04-25T08:43:33;6.95;;;4.18;;
14876;SDS011;22152;48.158;17.118;2023-04-25T08:46:00;8.23;;;3.90;;
14876;SDS011;22152;48.158;17.118;2023-04-25T08:48:36;9.93;;;3.70;;
14876;SDS011;22152;48.158;17.118;2023-04-25T08:51:05;8.80;;;4.35;;
14876;SDS011;22152;48.158;17.118;2023-04-25T08:53:33;7.10;;;4.45;;
14876;SDS011;22152;48.158;17.118;2023-04-25T08:56:02;6.88;;;3.83;;
14876;SDS011;22152;48.158;17.118;2023-04-25T08:58:33;9.70;;;4.65;;
14876;SDS011;22152;48.158;17.118;2023-04-25T09:01:00;4.72;;;3.80;;
14876;SDS011;22152;48.158;17.118;2023-04-25T09:03:28;7.40;;;4.20;;
14876;SDS011;22152;48.158;17.118;2023-04-25T09:05:55;9.32;;;3.88;;
14876;SDS011;22152;48.158;17.118;2023-04-25T09:08:21;4.65;;;3.90;;
14876;SDS011;22152;48.158;17.118;2023-04-25T09:10:47;8.75;;;4.38;;
14876;SDS011;22152;48.158;17.118;2023-04-25T09:13:14;8.25;;;3.78;;
14876;SDS011;22152;48.158;17.118;2023-04-25T09:16:16;6.43;;;4.05;;
14876;SDS011;22152;48.158;17.118;2023-04-25T09:19:02;7.75;;;4.13;;
14876;SDS011;22152;48.158;17.118;2023-04-25T09:21:28;5.85;;;4.10;;
14876;SDS011;22152;48.158;17.118;2023-04-25T09:23:55;9.52;;;4.72;;
14876;SDS011;22152;48.158;17.118;2023-04-25T09:26:23;5.60;;;3.88;;
14876;SDS011;22152;48.158;17.118;2023-04-25T09:29:00;7.10;;;3.97;;
14876;SDS011;22152;48.158;17.118;2023-04-25T09:31:33;5.88;;;3.40;;
14876;SDS011;22152;48.158;17.118;2023-04-25T09:34:01;6.38;;;3.63;;
14876;SDS011;22152;48.158;17.118;2023-04-25T09:36:29;8.05;;;3.85;;
14876;SDS011;22152;48.158;17.118;2023-04-25T09:39:16;6.93;;;3.85;;
14876;SDS011;22152;48.158;17.118;2023-04-25T09:41:53;4.57;;;3.08;;
14876;SDS011;22152;48.158;17.118;2023-04-25T09:44:23;4.60;;;3.30;;
14876;SDS011;22152;48.158;17.118;2023-04-25T09:46:51;6.68;;;3.53;;
14876;SDS011;22152;48.158;17.118;2023-04-25T09:49:22;5.25;;;3.67;;
14876;SDS011;22152;48.158;17.118;2023-04-25T09:52:20;4.72;;;3.28;;
14876;SDS011;22152;48.158;17.118;2023-04-25T09:54:59;6.38;;;3.60;;
14876;SDS011;22152;48.158;17.118;2023-04-25T09:57:31;9.38;;;4.20;;
14876;SDS011;22152;48.158;17.118;2023-04-25T09:59:57;7.60;;;4.03;;
14876;SDS011;22152;48.158;17.118;2023-04-25T10:02:29;5.43;;;3.72;;
14876;SDS011;22152;48.158;17.118;2023-04-25T10:05:05;5.90;;;3.47;;
14876;SDS011;22152;48.158;17.118;2023-04-25T10:07:39;8.48;;;3.80;;
14876;SDS011;22152;48.158;17.118;2023-04-25T10:10:14;6.85;;;3.80;;
14876;SDS011;22152;48.158;17.118;2023-04-25T10:12:40;8.98;;;4.10;;
14876;SDS011;22152;48.158;17.118;2023-04-25T10:15:08;9.95;;;3.92;;
14876;SDS011;22152;48.158;17.118;2023-04-25T10:17:35;5.30;;;3.28;;
14876;SDS011;22152;48.158;17.118;2023-04-25T10:20:02;6.32;;;3.92;;
14876;SDS011;22152;48.158;17.118;2023-04-25T10:22:34;5.18;;;3.25;;
14876;SDS011;22152;48.158;17.118;2023-04-25T10:25:03;7.05;;;3.83;;
14876;SDS011;22152;48.158;17.118;2023-04-25T10:27:31;4.28;;;3.70;;
14876;SDS011;22152;48.158;17.118;2023-04-25T10:30:04;4.32;;;3.33;;
14876;SDS011;22152;48.158;17.118;2023-04-25T10:32:36;4.10;;;2.92;;
14876;SDS011;22152;48.158;17.118;2023-04-25T10:35:15;7.00;;;3.65;;
14876;SDS011;22152;48.158;17.118;2023-04-25T10:40:23;6.05;;;2.92;;
14876;SDS011;22152;48.158;17.118;2023-04-25T10:42:51;5.53;;;3.03;;
14876;SDS011;22152;48.158;17.118;2023-04-25T10:45:19;3.97;;;2.67;;
14876;SDS011;22152;48.158;17.118;2023-04-25T10:47:45;5.97;;;2.97;;
14876;SDS011;22152;48.158;17.118;2023-04-25T10:50:12;5.82;;;3.10;;
14876;SDS011;22152;48.158;17.118;2023-04-25T10:52:41;8.80;;;3.80;;
14876;SDS011;22152;48.158;17.118;2023-04-25T10:55:07;4.93;;;3.30;;
14876;SDS011;22152;48.158;17.118;2023-04-25T10:57:40;4.80;;;3.42;;
14876;SDS011;22152;48.158;17.118;2023-04-25T11:05:21;3.88;;;2.85;;
14876;SDS011;22152;48.158;17.118;2023-04-25T11:07:57;4.90;;;2.65;;
14876;SDS011;22152;48.158;17.118;2023-04-25T11:10:31;5.03;;;3.58;;
14876;SDS011;22152;48.158;17.118;2023-04-25T11:13:00;5.95;;;3.70;;
14876;SDS011;22152;48.158;17.118;2023-04-25T11:15:26;4.55;;;3.88;;
14876;SDS011;22152;48.158;17.118;2023-04-25T11:17:52;4.60;;;3.63;;
14876;SDS011;22152;48.158;17.118;2023-04-25T11:20:20;6.57;;;3.47;;
14876;SDS011;22152;48.158;17.118;2023-04-25T11:22:47;2.95;;;2.42;;
14876;SDS011;22152;48.158;17.118;2023-04-25T11:25:15;6.20;;;2.50;;
14876;SDS011;22152;48.158;17.118;2023-04-25T11:27:51;3.13;;;2.00;;
14876;SDS011;22152;48.158;17.118;2023-04-25T11:30:22;2.55;;;2.03;;
14876;SDS011;22152;48.158;17.118;2023-04-25T11:32:50;2.63;;;1.65;;
14876;SDS011;22152;48.158;17.118;2023-04-25T11:35:17;3.65;;;1.83;;
14876;SDS011;22152;48.158;17.118;2023-04-25T11:37:46;2.10;;;1.90;;
14876;SDS011;22152;48.158;17.118;2023-04-25T11:40:12;2.63;;;1.92;;
14876;SDS011;22152;48.158;17.118;2023-04-25T11:42:47;2.00;;;1.65;;
14876;SDS011;22152;48.158;17.118;2023-04-25T11:45:14;5.15;;;1.70;;
14876;SDS011;22152;48.158;17.118;2023-04-25T11:47:40;2.83;;;1.73;;
14876;SDS011;22152;48.158;17.118;2023-04-25T11:50:06;2.30;;;1.77;;
14876;SDS011;22152;48.158;17.118;2023-04-25T11:52:40;2.88;;;1.90;;
14876;SDS011;22152;48.158;17.118;2023-04-25T11:55:09;4.78;;;2.17;;
14876;SDS011;22152;48.158;17.118;2023-04-25T11:57:43;3.85;;;2.08;;
14876;SDS011;22152;48.158;17.118;2023-04-25T12:00:15;8.02;;;2.15;;
14876;SDS011;22152;48.158;17.118;2023-04-25T12:02:48;4.45;;;2.63;;
14876;SDS011;22152;48.158;17.118;2023-04-25T12:05:19;3.42;;;2.60;;
14876;SDS011;22152;48.158;17.118;2023-04-25T12:07:45;7.43;;;2.30;;
14876;SDS011;22152;48.158;17.118;2023-04-25T12:10:13;4.82;;;2.35;;
14876;SDS011;22152;48.158;17.118;2023-04-25T12:12:41;9.70;;;2.65;;
14876;SDS011;22152;48.158;17.118;2023-04-25T12:17:50;4.47;;;2.88;;
14876;SDS011;22152;48.158;17.118;2023-04-25T12:20:18;7.78;;;4.43;;
14876;SDS011;22152;48.158;17.118;2023-04-25T12:22:49;7.28;;;4.65;;
14876;SDS011;22152;48.158;17.118;2023-04-25T12:25:37;6.28;;;4.80;;
14876;SDS011;22152;48.158;17.118;2023-04-25T12:28:11;16.10;;;6.00;;
14876;SDS011;22152;48.158;17.118;2023-04-25T12:33:31;5.65;;;3.47;;
14876;SDS011;22152;48.158;17.118;2023-04-25T12:36:00;7.05;;;3.40;;
14876;SDS011;22152;48.158;17.118;2023-04-25T12:38:35;4.55;;;2.78;;
14876;SDS011;22152;48.158;17.118;2023-04-25T12:41:05;4.57;;;2.80;;
14876;SDS011;22152;48.158;17.118;2023-04-25T12:43:32;6.47;;;3.00;;
14876;SDS011;22152;48.158;17.118;2023-04-25T12:45:58;4.85;;;2.80;;
14876;SDS011;22152;48.158;17.118;2023-04-25T12:48:24;7.60;;;2.63;;
14876;SDS011;22152;48.158;17.118;2023-04-25T12:50:50;3.45;;;2.40;;
14876;SDS011;22152;48.158;17.118;2023-04-25T12:53:20;3.28;;;2.40;;
14876;SDS011;22152;48.158;17.118;2023-04-25T12:55:49;7.70;;;3.13;;
14876;SDS011;22152;48.158;17.118;2023-04-25T12:58:16;7.88;;;3.20;;
14876;SDS011;22152;48.158;17.118;2023-04-25T13:00:44;3.67;;;2.50;;
14876;SDS011;22152;48.158;17.118;2023-04-25T13:03:10;8.05;;;3.35;;
14876;SDS011;22152;48.158;17.118;2023-04-25T13:05:37;12.77;;;3.65;;
14876;SDS011;22152;48.158;17.118;2023-04-25T13:08:04;7.15;;;2.97;;
14876;SDS011;22152;48.158;17.118;2023-04-25T13:10:30;9.57;;;3.63;;
14876;SDS011;22152;48.158;17.118;2023-04-25T13:12:56;14.32;;;2.50;;
14876;SDS011;22152;48.158;17.118;2023-04-25T13:15:22;5.63;;;2.10;;
14876;SDS011;22152;48.158;17.118;2023-04-25T13:17:48;8.50;;;1.58;;
14876;SDS011;22152;48.158;17.118;2023-04-25T13:20:14;3.85;;;1.60;;
14876;SDS011;22152;48.158;17.118;2023-04-25T13:22:41;4.80;;;1.63;;
14876;SDS011;22152;48.158;17.118;2023-04-25T13:25:08;1.92;;;1.55;;
14876;SDS011;22152;48.158;17.118;2023-04-25T13:27:34;2.35;;;1.67;;
14876;SDS011;22152;48.158;17.118;2023-04-25T13:30:05;2.83;;;1.77;;
14876;SDS011;22152;48.158;17.118;2023-04-25T13:32:34;3.35;;;2.20;;
14876;SDS011;22152;48.158;17.118;2023-04-25T13:35:05;3.70;;;2.10;;
14876;SDS011;22152;48.158;17.118;2023-04-25T13:37:33;2.25;;;1.60;;
14876;SDS011;22152;48.158;17.118;2023-04-25T13:40:00;2.10;;;1.20;;
14876;SDS011;22152;48.158;17.118;2023-04-25T13:42:29;2.00;;;1.20;;
14876;SDS011;22152;48.158;17.118;2023-04-25T13:44:55;2.22;;;1.48;;
14876;SDS011;69691;48.172;17.070;2023-04-25T13:47:21;1.80;;;1.10;;
14876;SDS011;69691;48.172;17.070;2023-04-25T13:49:48;3.30;;;1.67;;
14876;SDS011;69691;48.172;17.070;2023-04-25T13:52:15;3.55;;;1.70;;
14876;SDS011;69691;48.172;17.070;2023-04-25T13:54:41;2.13;;;1.40;;
14876;SDS011;69691;48.172;17.070;2023-04-25T13:57:07;2.70;;;1.73;;
14876;SDS011;69691;48.172;17.070;2023-04-25T13:59:33;1.73;;;1.23;;
14876;SDS011;69691;48.172;17.070;2023-04-25T14:01:59;1.67;;;1.48;;
14876;SDS011;69691;48.172;17.070;2023-04-25T14:04:25;2.95;;;1.70;;
14876;SDS011;69691;48.172;17.070;2023-04-25T14:06:51;2.28;;;1.55;;
14876;SDS011;69691;48.172;17.070;2023-04-25T14:09:18;1.52;;;1.33;;
14876;SDS011;69691;48.172;17.070;2023-04-25T14:11:46;2.13;;;1.60;;
14876;SDS011;69691;48.172;17.070;2023-04-25T14:14:11;4.88;;;1.55;;
14876;SDS011;69691;48.172;17.070;2023-04-25T14:16:40;3.70;;;1.42;;
14876;SDS011;69691;48.172;17.070;2023-04-25T14:19:06;3.22;;;1.35;;
14876;SDS011;69691;48.172;17.070;2023-04-25T14:21:32;2.75;;;1.50;;
14876;SDS011;69691;48.172;17.070;2023-04-25T14:23:58;2.05;;;1.50;;
14876;SDS011;69691;48.172;17.070;2023-04-25T14:26:24;1.60;;;1.35;;
14876;SDS011;69691;48.172;17.070;2023-04-25T14:28:50;2.13;;;1.45;;
14876;SDS011;69691;48.172;17.070;2023-04-25T14:31:17;2.35;;;1.42;;
14876;SDS011;69691;48.172;17.070;2023-04-25T14:33:43;2.78;;;1.40;;
14876;SDS011;69691;48.172;17.070;2023-04-25T14:36:09;3.65;;;1.75;;
14876;SDS011;69691;48.172;17.070;2023-04-25T14:38:35;8.07;;;2.25;;
14876;SDS011;69691;48.172;17.070;2023-04-25T14:41:01;3.05;;;2.15;;
14876;SDS011;69691;48.172;17.070;2023-04-25T14:43:27;2.05;;;1.80;;
14876;SDS011;69691;48.172;17.070;2023-04-25T14:45:53;4.78;;;1.65;;
14876;SDS011;69691;48.172;17.070;2023-04-25T14:48:19;1.90;;;1.75;;
14876;SDS011;69691;48.172;17.070;2023-04-25T14:50:48;4.30;;;1.20;;
14876;SDS011;69691;48.172;17.070;2023-04-25T14:53:14;1.25;;;1.13;;
14876;SDS011;69691;48.172;17.070;2023-04-25T14:55:40;4.20;;;1.27;;
14876;SDS011;69691;48.172;17.070;2023-04-25T14:58:06;3.58;;;1.20;;
14876;SDS011;69691;48.172;17.070;2023-04-25T15:00:32;2.10;;;1.00;;
14876;SDS011;69691;48.172;17.070;2023-04-25T15:02:58;2.25;;;1.20;;
14876;SDS011;69691;48.172;17.070;2023-04-25T15:05:24;1.00;;;1.00;;